sensor_id;sensor_type;location;lat;lon;timestamp;P1;durP1;ratioP1;P2;durP2;ratioP2
15297;SDS011;7750;48.796;9.026;2022-08-03T00:03:37;5.30;;;3.40;;
15297;SDS011;7750;48.796;9.026;2022-08-03T00:08:38;5.33;;;3.20;;
15297;SDS011;7750;48.796;9.026;2022-08-03T00:13:38;6.00;;;3.30;;
15297;SDS011;7750;48.796;9.026;2022-08-03T00:18:39;5.20;;;3.20;;
15297;SDS011;7750;48.796;9.026;2022-08-03T00:23:40;4.43;;;3.53;;
15297;SDS011;7750;48.796;9.026;2022-08-03T00:28:41;4.60;;;3.60;;
15297;SDS011;7750;48.796;9.026;2022-08-03T00:33:41;4.13;;;2.93;;
15297;SDS011;7750;48.796;9.026;2022-08-03T00:38:42;4.30;;;3.20;;
15297;SDS011;7750;48.796;9.026;2022-08-03T00:43:43;8.27;;;3.20;;
15297;SDS011;7750;48.796;9.026;2022-08-03T00:48:43;4.70;;;3.30;;
15297;SDS011;7750;48.796;9.026;2022-08-03T00:53:44;4.40;;;3.30;;
15297;SDS011;7750;48.796;9.026;2022-08-03T00:58:45;3.37;;;2.53;;
15297;SDS011;7750;48.796;9.026;2022-08-03T01:03:46;3.77;;;3.03;;
15297;SDS011;7750;48.796;9.026;2022-08-03T01:08:53;4.00;;;2.90;;
15297;SDS011;7750;48.796;9.026;2022-08-03T01:14:17;5.57;;;2.87;;
15297;SDS011;7750;48.796;9.026;2022-08-03T01:30:06;5.77;;;3.00;;
15297;SDS011;7750;48.796;9.026;2022-08-03T01:35:11;4.20;;;2.93;;
15297;SDS011;7750;48.796;9.026;2022-08-03T01:40:15;4.20;;;3.00;;
15297;SDS011;7750;48.796;9.026;2022-08-03T01:45:18;5.07;;;3.10;;
15297;SDS011;7750;48.796;9.026;2022-08-03T01:50:22;3.97;;;3.00;;
15297;SDS011;7750;48.796;9.026;2022-08-03T01:55:26;5.23;;;3.13;;
15297;SDS011;7750;48.796;9.026;2022-08-03T02:00:30;4.73;;;2.97;;
15297;SDS011;7750;48.796;9.026;2022-08-03T02:05:34;4.13;;;3.00;;
15297;SDS011;7750;48.796;9.026;2022-08-03T02:10:36;5.10;;;3.10;;
15297;SDS011;7750;48.796;9.026;2022-08-03T02:15:40;6.20;;;3.20;;
15297;SDS011;7750;48.796;9.026;2022-08-03T02:20:42;7.17;;;3.83;;
15297;SDS011;7750;48.796;9.026;2022-08-03T02:25:45;4.87;;;3.37;;
15297;SDS011;7750;48.796;9.026;2022-08-03T02:30:50;4.30;;;3.10;;
15297;SDS011;7750;48.796;9.026;2022-08-03T02:35:53;9.00;;;3.60;;
15297;SDS011;7750;48.796;9.026;2022-08-03T02:40:57;5.83;;;3.60;;
15297;SDS011;7750;48.796;9.026;2022-08-03T02:45:58;4.87;;;3.30;;
15297;SDS011;7750;48.796;9.026;2022-08-03T02:50:59;3.87;;;2.87;;
15297;SDS011;7750;48.796;9.026;2022-08-03T02:56:02;3.70;;;3.20;;
15297;SDS011;7750;48.796;9.026;2022-08-03T03:01:04;5.73;;;3.33;;
15297;SDS011;7750;48.796;9.026;2022-08-03T03:06:06;4.70;;;3.17;;
15297;SDS011;7750;48.796;9.026;2022-08-03T03:11:08;3.73;;;2.80;;
15297;SDS011;7750;48.796;9.026;2022-08-03T03:16:11;6.20;;;2.90;;
15297;SDS011;7750;48.796;9.026;2022-08-03T03:21:14;4.20;;;3.30;;
15297;SDS011;7750;48.796;9.026;2022-08-03T03:26:16;4.07;;;3.10;;
15297;SDS011;7750;48.796;9.026;2022-08-03T03:31:18;5.37;;;3.00;;
15297;SDS011;7750;48.796;9.026;2022-08-03T03:36:19;4.23;;;2.97;;
15297;SDS011;7750;48.796;9.026;2022-08-03T03:41:19;4.43;;;2.97;;
15297;SDS011;7750;48.796;9.026;2022-08-03T03:46:20;3.43;;;2.70;;
15297;SDS011;7750;48.796;9.026;2022-08-03T03:51:21;3.80;;;3.10;;
15297;SDS011;7750;48.796;9.026;2022-08-03T03:56:21;4.80;;;3.10;;
15297;SDS011;7750;48.796;9.026;2022-08-03T04:01:22;5.30;;;3.63;;
15297;SDS011;7750;48.796;9.026;2022-08-03T04:06:24;4.27;;;3.23;;
15297;SDS011;7750;48.796;9.026;2022-08-03T04:11:49;3.73;;;3.00;;
15297;SDS011;7750;48.796;9.026;2022-08-03T04:16:55;4.30;;;3.20;;
15297;SDS011;7750;48.796;9.026;2022-08-03T04:21:59;3.80;;;3.07;;
15297;SDS011;7750;48.796;9.026;2022-08-03T04:27:05;3.63;;;3.00;;
15297;SDS011;7750;48.796;9.026;2022-08-03T04:32:08;4.50;;;3.20;;
15297;SDS011;7750;48.796;9.026;2022-08-03T04:37:11;3.87;;;3.10;;
15297;SDS011;7750;48.796;9.026;2022-08-03T04:42:15;4.27;;;2.80;;
15297;SDS011;7750;48.796;9.026;2022-08-03T04:47:17;3.80;;;3.00;;
15297;SDS011;7750;48.796;9.026;2022-08-03T04:52:18;3.60;;;2.87;;
15297;SDS011;7750;48.796;9.026;2022-08-03T04:57:19;4.20;;;3.30;;
15297;SDS011;7750;48.796;9.026;2022-08-03T05:02:20;5.97;;;3.90;;
15297;SDS011;7750;48.796;9.026;2022-08-03T05:07:21;4.20;;;3.40;;
15297;SDS011;7750;48.796;9.026;2022-08-03T05:12:21;4.50;;;3.50;;
15297;SDS011;7750;48.796;9.026;2022-08-03T05:17:22;4.33;;;3.60;;
15297;SDS011;7750;48.796;9.026;2022-08-03T05:22:23;3.90;;;3.13;;
15297;SDS011;7750;48.796;9.026;2022-08-03T05:27:23;4.47;;;3.50;;
15297;SDS011;7750;48.796;9.026;2022-08-03T05:32:24;6.30;;;3.57;;
15297;SDS011;7750;48.796;9.026;2022-08-03T05:37:25;4.90;;;3.53;;
15297;SDS011;7750;48.796;9.026;2022-08-03T05:42:25;4.13;;;3.03;;
15297;SDS011;7750;48.796;9.026;2022-08-03T05:47:26;4.33;;;3.13;;
15297;SDS011;7750;48.796;9.026;2022-08-03T05:52:27;7.50;;;4.20;;
15297;SDS011;7750;48.796;9.026;2022-08-03T05:57:27;5.80;;;3.40;;
15297;SDS011;7750;48.796;9.026;2022-08-03T06:02:28;5.30;;;4.00;;
15297;SDS011;7750;48.796;9.026;2022-08-03T06:07:29;4.90;;;3.30;;
15297;SDS011;7750;48.796;9.026;2022-08-03T06:12:29;5.03;;;3.10;;
15297;SDS011;7750;48.796;9.026;2022-08-03T06:17:30;5.53;;;4.07;;
15297;SDS011;7750;48.796;9.026;2022-08-03T06:22:31;4.03;;;3.10;;
15297;SDS011;7750;48.796;9.026;2022-08-03T06:27:31;5.67;;;3.83;;
15297;SDS011;7750;48.796;9.026;2022-08-03T06:32:32;5.53;;;3.23;;
15297;SDS011;7750;48.796;9.026;2022-08-03T06:42:50;6.50;;;3.77;;
15297;SDS011;7750;48.796;9.026;2022-08-03T06:48:01;5.77;;;3.77;;
15297;SDS011;7750;48.796;9.026;2022-08-03T06:53:03;8.80;;;3.10;;
15297;SDS011;7750;48.796;9.026;2022-08-03T06:58:04;4.63;;;3.10;;
15297;SDS011;7750;48.796;9.026;2022-08-03T07:03:04;5.27;;;3.10;;
15297;SDS011;7750;48.796;9.026;2022-08-03T07:08:05;4.50;;;2.70;;
15297;SDS011;7750;48.796;9.026;2022-08-03T07:13:06;6.43;;;3.10;;
15297;SDS011;7750;48.796;9.026;2022-08-03T07:18:07;4.33;;;2.80;;
15297;SDS011;7750;48.796;9.026;2022-08-03T07:23:08;4.07;;;2.80;;
15297;SDS011;7750;48.796;9.026;2022-08-03T07:28:09;7.70;;;2.90;;
15297;SDS011;7750;48.796;9.026;2022-08-03T07:33:09;3.93;;;2.40;;
15297;SDS011;7750;48.796;9.026;2022-08-03T07:38:10;5.87;;;2.40;;
15297;SDS011;7750;48.796;9.026;2022-08-03T07:43:10;3.13;;;2.27;;
15297;SDS011;7750;48.796;9.026;2022-08-03T07:48:11;2.40;;;1.77;;
15297;SDS011;7750;48.796;9.026;2022-08-03T07:53:12;3.13;;;1.70;;
15297;SDS011;7750;48.796;9.026;2022-08-03T07:58:13;2.70;;;1.90;;
15297;SDS011;7750;48.796;9.026;2022-08-03T08:03:21;2.93;;;2.00;;
15297;SDS011;7750;48.796;9.026;2022-08-03T08:08:22;3.50;;;2.20;;
15297;SDS011;7750;48.796;9.026;2022-08-03T08:13:23;5.83;;;2.43;;
15297;SDS011;7750;48.796;9.026;2022-08-03T08:18:23;3.30;;;2.47;;
15297;SDS011;7750;48.796;9.026;2022-08-03T08:23:24;2.97;;;2.03;;
15297;SDS011;7750;48.796;9.026;2022-08-03T08:28:25;4.73;;;1.77;;
15297;SDS011;7750;48.796;9.026;2022-08-03T08:33:26;2.73;;;1.90;;
15297;SDS011;7750;48.796;9.026;2022-08-03T08:38:27;9.13;;;2.00;;
15297;SDS011;7750;48.796;9.026;2022-08-03T08:43:28;3.13;;;2.17;;
15297;SDS011;7750;48.796;9.026;2022-08-03T08:48:28;2.50;;;1.60;;
15297;SDS011;7750;48.796;9.026;2022-08-03T08:53:29;7.67;;;2.10;;
15297;SDS011;7750;48.796;9.026;2022-08-03T08:58:33;2.97;;;1.80;;
15297;SDS011;7750;48.796;9.026;2022-08-03T09:03:37;2.90;;;1.73;;
15297;SDS011;7750;48.796;9.026;2022-08-03T09:08:38;2.50;;;1.80;;
15297;SDS011;7750;48.796;9.026;2022-08-03T09:13:38;2.63;;;1.70;;
15297;SDS011;7750;48.796;9.026;2022-08-03T09:18:40;2.97;;;1.70;;
15297;SDS011;7750;48.796;9.026;2022-08-03T09:23:42;2.53;;;1.80;;
15297;SDS011;7750;48.796;9.026;2022-08-03T09:28:45;5.43;;;1.90;;
15297;SDS011;7750;48.796;9.026;2022-08-03T09:33:46;2.73;;;1.60;;
15297;SDS011;7750;48.796;9.026;2022-08-03T09:39:00;5.50;;;2.00;;
15297;SDS011;7750;48.796;9.026;2022-08-03T09:44:05;3.47;;;2.00;;
15297;SDS011;7750;48.796;9.026;2022-08-03T09:49:07;2.70;;;2.03;;
15297;SDS011;7750;48.796;9.026;2022-08-03T09:54:11;3.20;;;1.83;;
15297;SDS011;7750;48.796;9.026;2022-08-03T09:59:13;2.67;;;1.90;;
15297;SDS011;7750;48.796;9.026;2022-08-03T10:04:23;2.90;;;2.00;;
15297;SDS011;7750;48.796;9.026;2022-08-03T10:09:24;2.70;;;2.00;;
15297;SDS011;7750;48.796;9.026;2022-08-03T10:14:24;3.83;;;2.57;;
15297;SDS011;7750;48.796;9.026;2022-08-03T10:19:29;2.70;;;2.20;;
15297;SDS011;7750;48.796;9.026;2022-08-03T10:24:30;2.50;;;1.80;;
15297;SDS011;7750;48.796;9.026;2022-08-03T10:29:38;3.10;;;2.07;;
15297;SDS011;7750;48.796;9.026;2022-08-03T10:34:44;3.50;;;2.20;;
15297;SDS011;7750;48.796;9.026;2022-08-03T10:39:52;3.23;;;2.27;;
15297;SDS011;7750;48.796;9.026;2022-08-03T10:45:02;2.80;;;2.20;;
15297;SDS011;7750;48.796;9.026;2022-08-03T10:50:12;3.50;;;2.20;;
15297;SDS011;7750;48.796;9.026;2022-08-03T10:55:58;3.17;;;2.40;;
15297;SDS011;7750;48.796;9.026;2022-08-03T11:00:59;2.97;;;2.33;;
15297;SDS011;7750;48.796;9.026;2022-08-03T11:11:30;20.63;;;2.70;;
15297;SDS011;7750;48.796;9.026;2022-08-03T11:16:36;3.10;;;2.40;;
15297;SDS011;7750;48.796;9.026;2022-08-03T11:21:58;4.50;;;2.37;;
15297;SDS011;7750;48.796;9.026;2022-08-03T11:33:11;3.60;;;2.40;;
15297;SDS011;7750;48.796;9.026;2022-08-03T11:38:03;4.33;;;2.50;;
15297;SDS011;7750;48.796;9.026;2022-08-03T11:48:22;3.47;;;2.20;;
15297;SDS011;7750;48.796;9.026;2022-08-03T11:53:27;3.00;;;2.10;;
15297;SDS011;7750;48.796;9.026;2022-08-03T11:58:28;4.23;;;1.93;;
15297;SDS011;7750;48.796;9.026;2022-08-03T12:03:31;3.03;;;2.07;;
15297;SDS011;7750;48.796;9.026;2022-08-03T12:08:32;6.30;;;2.43;;
15297;SDS011;7750;48.796;9.026;2022-08-03T12:13:40;2.73;;;2.37;;
15297;SDS011;7750;48.796;9.026;2022-08-03T12:18:42;2.50;;;2.00;;
15297;SDS011;7750;48.796;9.026;2022-08-03T12:23:43;2.97;;;2.13;;
15297;SDS011;7750;48.796;9.026;2022-08-03T12:28:47;3.13;;;2.30;;
15297;SDS011;7750;48.796;9.026;2022-08-03T12:33:58;3.80;;;2.63;;
15297;SDS011;7750;48.796;9.026;2022-08-03T12:39:06;2.83;;;2.30;;
15297;SDS011;7750;48.796;9.026;2022-08-03T12:44:08;3.17;;;2.50;;
15297;SDS011;7750;48.796;9.026;2022-08-03T12:49:12;2.90;;;2.33;;
15297;SDS011;7750;48.796;9.026;2022-08-03T12:54:16;5.40;;;2.60;;
15297;SDS011;7750;48.796;9.026;2022-08-03T12:59:34;3.47;;;2.83;;
15297;SDS011;7750;48.796;9.026;2022-08-03T13:04:45;2.90;;;2.30;;
15297;SDS011;7750;48.796;9.026;2022-08-03T13:09:50;3.13;;;2.30;;
15297;SDS011;7750;48.796;9.026;2022-08-03T13:14:58;3.07;;;1.90;;
15297;SDS011;7750;48.796;9.026;2022-08-03T13:19:59;2.60;;;1.83;;
15297;SDS011;7750;48.796;9.026;2022-08-03T13:25:00;4.00;;;2.73;;
15297;SDS011;7750;48.796;9.026;2022-08-03T13:30:02;3.40;;;2.40;;
15297;SDS011;7750;48.796;9.026;2022-08-03T13:35:03;2.70;;;2.20;;
15297;SDS011;7750;48.796;9.026;2022-08-03T13:40:05;2.60;;;2.23;;
15297;SDS011;7750;48.796;9.026;2022-08-03T13:45:07;3.60;;;2.13;;
15297;SDS011;7750;48.796;9.026;2022-08-03T13:50:09;9.60;;;2.20;;
15297;SDS011;7750;48.796;9.026;2022-08-03T13:55:10;4.17;;;2.20;;
15297;SDS011;7750;48.796;9.026;2022-08-03T14:00:10;2.80;;;2.30;;
15297;SDS011;7750;48.796;9.026;2022-08-03T14:05:11;4.20;;;2.50;;
15297;SDS011;7750;48.796;9.026;2022-08-03T14:10:12;4.17;;;3.20;;
15297;SDS011;7750;48.796;9.026;2022-08-03T14:15:13;5.60;;;2.40;;
15297;SDS011;7750;48.796;9.026;2022-08-03T14:20:14;4.97;;;2.63;;
15297;SDS011;7750;48.796;9.026;2022-08-03T14:25:15;3.87;;;2.13;;
15297;SDS011;7750;48.796;9.026;2022-08-03T14:30:16;3.10;;;2.40;;
15297;SDS011;7750;48.796;9.026;2022-08-03T14:35:16;3.10;;;2.33;;
15297;SDS011;7750;48.796;9.026;2022-08-03T14:40:17;2.67;;;2.20;;
15297;SDS011;7750;48.796;9.026;2022-08-03T14:45:18;3.63;;;2.60;;
15297;SDS011;7750;48.796;9.026;2022-08-03T14:50:19;3.40;;;2.37;;
15297;SDS011;7750;48.796;9.026;2022-08-03T14:55:21;3.30;;;2.67;;
15297;SDS011;7750;48.796;9.026;2022-08-03T15:00:22;3.00;;;2.50;;
15297;SDS011;7750;48.796;9.026;2022-08-03T15:05:22;2.93;;;2.27;;
15297;SDS011;7750;48.796;9.026;2022-08-03T15:10:23;2.70;;;2.33;;
15297;SDS011;7750;48.796;9.026;2022-08-03T15:15:24;6.67;;;2.20;;
15297;SDS011;7750;48.796;9.026;2022-08-03T15:20:24;5.13;;;2.70;;
15297;SDS011;7750;48.796;9.026;2022-08-03T15:25:28;4.67;;;2.20;;
15297;SDS011;7750;48.796;9.026;2022-08-03T15:30:29;4.03;;;2.60;;
15297;SDS011;7750;48.796;9.026;2022-08-03T15:35:30;2.90;;;2.30;;
15297;SDS011;7750;48.796;9.026;2022-08-03T15:40:31;4.20;;;2.40;;
15297;SDS011;7750;48.796;9.026;2022-08-03T15:45:32;3.33;;;2.37;;
15297;SDS011;7750;48.796;9.026;2022-08-03T15:50:37;3.33;;;2.27;;
15297;SDS011;7750;48.796;9.026;2022-08-03T15:55:38;3.10;;;2.37;;
15297;SDS011;7750;48.796;9.026;2022-08-03T16:00:39;4.80;;;2.47;;
15297;SDS011;7750;48.796;9.026;2022-08-03T16:05:41;3.23;;;2.50;;
15297;SDS011;7750;48.796;9.026;2022-08-03T16:10:42;3.30;;;2.20;;
15297;SDS011;7750;48.796;9.026;2022-08-03T16:15:43;4.40;;;2.20;;
15297;SDS011;7750;48.796;9.026;2022-08-03T16:20:43;2.80;;;2.30;;
15297;SDS011;7750;48.796;9.026;2022-08-03T16:25:44;2.90;;;2.10;;
15297;SDS011;7750;48.796;9.026;2022-08-03T16:30:45;2.83;;;2.47;;
15297;SDS011;7750;48.796;9.026;2022-08-03T16:35:46;4.20;;;2.50;;
15297;SDS011;7750;48.796;9.026;2022-08-03T16:40:48;3.03;;;2.20;;
15297;SDS011;7750;48.796;9.026;2022-08-03T16:45:52;2.47;;;2.10;;
15297;SDS011;7750;48.796;9.026;2022-08-03T16:50:53;2.70;;;2.23;;
15297;SDS011;7750;48.796;9.026;2022-08-03T16:55:54;4.70;;;2.47;;
15297;SDS011;7750;48.796;9.026;2022-08-03T17:00:55;5.07;;;2.60;;
15297;SDS011;7750;48.796;9.026;2022-08-03T17:05:55;3.23;;;2.63;;
15297;SDS011;7750;48.796;9.026;2022-08-03T17:10:57;9.50;;;2.10;;
15297;SDS011;7750;48.796;9.026;2022-08-03T17:15:57;3.47;;;2.17;;
15297;SDS011;7750;48.796;9.026;2022-08-03T17:21:04;2.90;;;2.20;;
15297;SDS011;7750;48.796;9.026;2022-08-03T17:26:05;4.10;;;2.83;;
15297;SDS011;7750;48.796;9.026;2022-08-03T17:31:09;3.50;;;2.23;;
15297;SDS011;7750;48.796;9.026;2022-08-03T17:36:14;5.20;;;1.80;;
15297;SDS011;7750;48.796;9.026;2022-08-03T17:41:21;5.43;;;2.63;;
15297;SDS011;7750;48.796;9.026;2022-08-03T17:46:22;3.30;;;2.33;;
15297;SDS011;7750;48.796;9.026;2022-08-03T17:51:29;2.83;;;2.30;;
15297;SDS011;7750;48.796;9.026;2022-08-03T18:07:25;3.50;;;2.73;;
15297;SDS011;7750;48.796;9.026;2022-08-03T18:12:28;3.50;;;2.50;;
15297;SDS011;7750;48.796;9.026;2022-08-03T18:17:33;4.57;;;2.10;;
15297;SDS011;7750;48.796;9.026;2022-08-03T18:22:37;2.97;;;2.40;;
15297;SDS011;7750;48.796;9.026;2022-08-03T18:27:38;2.97;;;2.20;;
15297;SDS011;7750;48.796;9.026;2022-08-03T18:32:40;3.60;;;2.67;;
15297;SDS011;7750;48.796;9.026;2022-08-03T18:37:42;4.37;;;2.77;;
15297;SDS011;7750;48.796;9.026;2022-08-03T18:42:44;2.93;;;2.33;;
15297;SDS011;7750;48.796;9.026;2022-08-03T18:58:24;2.53;;;1.90;;
15297;SDS011;7750;48.796;9.026;2022-08-03T19:03:31;2.80;;;1.80;;
15297;SDS011;7750;48.796;9.026;2022-08-03T19:13:55;4.83;;;2.20;;
15297;SDS011;7750;48.796;9.026;2022-08-03T19:18:58;4.30;;;2.10;;
15297;SDS011;7750;48.796;9.026;2022-08-03T19:24:01;3.10;;;2.40;;
15297;SDS011;7750;48.796;9.026;2022-08-03T19:29:07;3.10;;;2.10;;
15297;SDS011;7750;48.796;9.026;2022-08-03T19:34:09;3.03;;;2.00;;
15297;SDS011;7750;48.796;9.026;2022-08-03T19:39:10;3.77;;;2.40;;
15297;SDS011;7750;48.796;9.026;2022-08-03T19:44:14;2.90;;;2.00;;
15297;SDS011;7750;48.796;9.026;2022-08-03T19:49:23;3.30;;;2.20;;
15297;SDS011;7750;48.796;9.026;2022-08-03T19:54:26;3.53;;;2.40;;
15297;SDS011;7750;48.796;9.026;2022-08-03T19:59:39;3.80;;;2.33;;
15297;SDS011;7750;48.796;9.026;2022-08-03T20:04:41;8.20;;;2.20;;
15297;SDS011;7750;48.796;9.026;2022-08-03T20:09:43;6.90;;;2.57;;
15297;SDS011;7750;48.796;9.026;2022-08-03T20:14:45;3.00;;;2.13;;
15297;SDS011;7750;48.796;9.026;2022-08-03T20:19:47;3.50;;;2.30;;
15297;SDS011;7750;48.796;9.026;2022-08-03T20:24:54;3.03;;;2.13;;
15297;SDS011;7750;48.796;9.026;2022-08-03T20:29:55;3.30;;;2.03;;
15297;SDS011;7750;48.796;9.026;2022-08-03T20:34:57;3.53;;;2.13;;
15297;SDS011;7750;48.796;9.026;2022-08-03T20:39:58;3.40;;;2.27;;
15297;SDS011;7750;48.796;9.026;2022-08-03T20:44:59;2.90;;;2.20;;
15297;SDS011;7750;48.796;9.026;2022-08-03T20:50:00;2.77;;;2.03;;
15297;SDS011;7750;48.796;9.026;2022-08-03T20:55:03;4.10;;;2.10;;
15297;SDS011;7750;48.796;9.026;2022-08-03T21:00:05;4.20;;;2.60;;
15297;SDS011;7750;48.796;9.026;2022-08-03T21:05:12;3.77;;;2.57;;
15297;SDS011;7750;48.796;9.026;2022-08-03T21:10:14;18.03;;;2.80;;
15297;SDS011;7750;48.796;9.026;2022-08-03T21:15:16;2.80;;;1.90;;
15297;SDS011;7750;48.796;9.026;2022-08-03T21:20:21;3.80;;;2.37;;
15297;SDS011;7750;48.796;9.026;2022-08-03T21:25:25;5.83;;;2.37;;
15297;SDS011;7750;48.796;9.026;2022-08-03T21:30:28;3.00;;;2.17;;
15297;SDS011;7750;48.796;9.026;2022-08-03T21:35:29;4.07;;;1.93;;
15297;SDS011;7750;48.796;9.026;2022-08-03T21:40:30;3.53;;;2.17;;
15297;SDS011;7750;48.796;9.026;2022-08-03T21:45:32;5.50;;;2.03;;
15297;SDS011;7750;48.796;9.026;2022-08-03T21:50:35;3.50;;;2.60;;
15297;SDS011;7750;48.796;9.026;2022-08-03T21:55:36;4.00;;;2.80;;
15297;SDS011;7750;48.796;9.026;2022-08-03T22:00:40;5.40;;;2.43;;
15297;SDS011;7750;48.796;9.026;2022-08-03T22:05:42;4.43;;;2.57;;
15297;SDS011;7750;48.796;9.026;2022-08-03T22:10:43;3.17;;;2.40;;
15297;SDS011;7750;48.796;9.026;2022-08-03T22:15:46;5.20;;;2.53;;
15297;SDS011;7750;48.796;9.026;2022-08-03T22:20:50;4.20;;;2.60;;
15297;SDS011;7750;48.796;9.026;2022-08-03T22:25:52;4.53;;;2.80;;
15297;SDS011;7750;48.796;9.026;2022-08-03T22:30:55;3.93;;;2.50;;
15297;SDS011;7750;48.796;9.026;2022-08-03T22:35:58;4.20;;;2.27;;
15297;SDS011;7750;48.796;9.026;2022-08-03T22:41:01;5.57;;;2.43;;
15297;SDS011;7750;48.796;9.026;2022-08-03T22:46:02;3.30;;;2.30;;
15297;SDS011;7750;48.796;9.026;2022-08-03T22:51:03;3.17;;;2.13;;
15297;SDS011;7750;48.796;9.026;2022-08-03T22:56:06;5.70;;;2.27;;
15297;SDS011;7750;48.796;9.026;2022-08-03T23:01:08;3.87;;;2.50;;
15297;SDS011;7750;48.796;9.026;2022-08-03T23:06:10;4.53;;;1.90;;
15297;SDS011;7750;48.796;9.026;2022-08-03T23:11:12;3.57;;;2.33;;
15297;SDS011;7750;48.796;9.026;2022-08-03T23:16:16;4.00;;;2.80;;
15297;SDS011;7750;48.796;9.026;2022-08-03T23:21:19;4.60;;;2.90;;
15297;SDS011;7750;48.796;9.026;2022-08-03T23:26:20;3.83;;;2.30;;
15297;SDS011;7750;48.796;9.026;2022-08-03T23:31:21;3.50;;;2.30;;
15297;SDS011;7750;48.796;9.026;2022-08-03T23:36:24;4.27;;;2.67;;
15297;SDS011;7750;48.796;9.026;2022-08-03T23:41:24;3.07;;;2.40;;
15297;SDS011;7750;48.796;9.026;2022-08-03T23:46:25;4.50;;;2.70;;
